Long Beach /Daugherty Field/ Airport
KLGB : rendu visible

Aérodrome :











RETROUVEZ-NOUS SUR...

 
LOGIN :

S'inscrire | Disclaimer

   EN    FR    IT 

 









Légende :    VFR   VFR Marginal   IFR   IFR Intensif   IFR Très Intensif
Visi : 
Plafond : 
>= 8 km
>= 3000ft
5 à 8 km
1000 à 3000 ft
1500m à 5 km
500 à 1000 ft
800 à 1500m
200 à 500 ft
< 800m
< 200 ft
Symboles :   Orages  Brouillard  Fortes neiges  Fortes précipitations  Vent > 20 kt






- Altitude de l'aérodrome : 60 ft
- Code IATA : LGB


KLGB - Long Beach /Daugherty Field/

DERNIER METAR :
  • 200253Z 12004KT 10SM CLR 15/12 A3003 RMK AO2 SLP169 T01500117 56001

METARs EXPIRÉS :
  • 200153Z 21004KT 10SM CLR 16/12 A3004 RMK AO2 SLP171 T01610117
  • 200053Z 12004KT 10SM CLR 17/11 A3002 RMK AO2 SLP165 T01720106

TAF KLGB
Valide du 20 à 00h jusqu'au 21 à 00h UTC


192337Z 2000/2024 29006KT P6SM BKN200
FM200300 VRB03KT P6SM OVC200
FM201400 12005KT P6SM OVC100
FM201900 17006KT P6SM SCT025 OVC100



MET'MAP, la Météo Aéronautique d'un coup d'oeil ! - Copyright ORBIFLY Décembre 2007 - Disclaimer

ORBIFLY MET'MAP TEAM :

Programmation & Développement : Alexandra Zaïnal
Sur une idée originale de : Baudouin d'Aumeries
Assistance à la programmation : Marc-Olivier Méhu
Soutien technique & logistique : Manuel Goepfert

Contact : metmap@orbifly.com




SOURCES & CREDITS :

   NOAA       Earth
Advisory